sensor_id;sensor_type;location;lat;lon;timestamp;P1;durP1;ratioP1;P2;durP2;ratioP2
39680;SDS011;26327;42.550;23.120;2023-02-11T08:42:28;23.48;;;13.82;;
39680;SDS011;26327;42.550;23.120;2023-02-11T08:44:54;17.80;;;11.75;;
39680;SDS011;26327;42.550;23.120;2023-02-11T08:47:19;20.88;;;13.32;;
39680;SDS011;26327;42.550;23.120;2023-02-11T08:49:45;19.25;;;12.48;;
39680;SDS011;26327;42.550;23.120;2023-02-11T08:52:10;24.00;;;13.52;;
39680;SDS011;26327;42.550;23.120;2023-02-11T08:54:36;28.15;;;16.85;;
39680;SDS011;26327;42.550;23.120;2023-02-11T08:57:01;39.22;;;24.27;;
39680;SDS011;26327;42.550;23.120;2023-02-11T08:59:28;25.95;;;15.65;;
39680;SDS011;26327;42.550;23.120;2023-02-11T09:01:53;26.70;;;14.35;;
39680;SDS011;26327;42.550;23.120;2023-02-11T09:04:19;28.48;;;15.27;;
39680;SDS011;26327;42.550;23.120;2023-02-11T09:06:45;36.05;;;22.65;;
39680;SDS011;26327;42.550;23.120;2023-02-11T09:09:11;38.67;;;24.05;;
39680;SDS011;26327;42.550;23.120;2023-02-11T09:11:38;25.80;;;16.90;;
39680;SDS011;26327;42.550;23.120;2023-02-11T09:14:06;21.00;;;14.02;;
39680;SDS011;26327;42.550;23.120;2023-02-11T09:16:34;42.10;;;24.52;;
39680;SDS011;26327;42.550;23.120;2023-02-11T09:19:01;26.17;;;13.63;;
39680;SDS011;26327;42.550;23.120;2023-02-11T09:21:28;25.88;;;15.10;;
39680;SDS011;26327;42.550;23.120;2023-02-11T09:23:54;22.58;;;14.75;;
39680;SDS011;26327;42.550;23.120;2023-02-11T09:26:21;29.77;;;16.65;;
39680;SDS011;26327;42.550;23.120;2023-02-11T09:28:48;24.67;;;14.93;;
39680;SDS011;26327;42.550;23.120;2023-02-11T09:31:16;31.08;;;20.75;;
39680;SDS011;26327;42.550;23.120;2023-02-11T09:33:44;25.13;;;16.27;;
39680;SDS011;26327;42.550;23.120;2023-02-11T09:36:14;24.00;;;16.55;;
39680;SDS011;26327;42.550;23.120;2023-02-11T09:38:42;23.73;;;14.40;;
39680;SDS011;26327;42.550;23.120;2023-02-11T09:43:56;24.52;;;16.17;;
39680;SDS011;26327;42.550;23.120;2023-02-11T09:46:26;32.28;;;20.27;;
39680;SDS011;26327;42.550;23.120;2023-02-11T09:48:58;33.75;;;21.67;;
39680;SDS011;26327;42.550;23.120;2023-02-11T09:57:12;18.25;;;12.50;;
39680;SDS011;26327;42.550;23.120;2023-02-11T09:59:37;20.88;;;13.15;;
39680;SDS011;26327;42.550;23.120;2023-02-11T10:02:19;22.38;;;14.10;;
39680;SDS011;26327;42.550;23.120;2023-02-11T10:05:16;18.40;;;12.27;;
39680;SDS011;26327;42.550;23.120;2023-02-11T10:07:56;18.75;;;12.82;;
39680;SDS011;26327;42.550;23.120;2023-02-11T10:10:43;14.73;;;11.02;;
39680;SDS011;26327;42.550;23.120;2023-02-11T10:15:57;19.15;;;11.27;;
39680;SDS011;26327;42.550;23.120;2023-02-11T10:21:58;19.33;;;11.88;;
39680;SDS011;26327;42.550;23.120;2023-02-11T10:24:27;17.70;;;11.63;;
39680;SDS011;26327;42.550;23.120;2023-02-11T10:26:53;19.77;;;11.88;;
39680;SDS011;26327;42.550;23.120;2023-02-11T10:31:58;17.47;;;11.60;;
39680;SDS011;26327;42.550;23.120;2023-02-11T10:34:26;19.48;;;11.18;;
39680;SDS011;26327;42.550;23.120;2023-02-11T10:36:51;15.88;;;11.18;;
39680;SDS011;26327;42.550;23.120;2023-02-11T10:39:21;17.13;;;11.43;;
39680;SDS011;26327;42.550;23.120;2023-02-11T10:41:49;15.98;;;10.88;;
39680;SDS011;26327;42.550;23.120;2023-02-11T10:44:37;18.33;;;10.23;;
39680;SDS011;26327;42.550;23.120;2023-02-11T10:47:23;15.32;;;9.90;;
39680;SDS011;26327;42.550;23.120;2023-02-11T10:49:51;15.48;;;10.77;;
39680;SDS011;26327;42.550;23.120;2023-02-11T10:52:23;17.80;;;11.57;;
39680;SDS011;26327;42.550;23.120;2023-02-11T11:03:24;18.08;;;9.27;;
39680;SDS011;26327;42.550;23.120;2023-02-11T11:08:15;15.15;;;9.40;;
39680;SDS011;26327;42.550;23.120;2023-02-11T11:10:43;21.63;;;14.38;;
39680;SDS011;26327;42.550;23.120;2023-02-11T11:18:53;12.52;;;7.32;;
39680;SDS011;26327;42.550;23.120;2023-02-11T11:23:59;13.82;;;7.90;;
39680;SDS011;26327;42.550;23.120;2023-02-11T11:26:27;16.83;;;12.30;;
39680;SDS011;26327;42.550;23.120;2023-02-11T11:29:08;32.92;;;20.55;;
39680;SDS011;26327;42.550;23.120;2023-02-11T11:34:26;30.27;;;24.27;;
39680;SDS011;26327;42.550;23.120;2023-02-11T11:36:56;15.57;;;12.93;;
39680;SDS011;26327;42.550;23.120;2023-02-11T11:39:27;12.45;;;8.05;;
39680;SDS011;26327;42.550;23.120;2023-02-11T11:41:59;13.23;;;8.98;;
39680;SDS011;26327;42.550;23.120;2023-02-11T11:44:31;25.45;;;10.85;;
39680;SDS011;26327;42.550;23.120;2023-02-11T11:49:35;10.32;;;7.07;;
39680;SDS011;26327;42.550;23.120;2023-02-11T11:54:38;11.85;;;8.88;;
39680;SDS011;26327;42.550;23.120;2023-02-11T11:57:14;12.43;;;8.10;;
39680;SDS011;26327;42.550;23.120;2023-02-11T11:59:42;9.75;;;6.70;;
39680;SDS011;26327;42.550;23.120;2023-02-11T12:05:10;12.95;;;9.30;;
39680;SDS011;26327;42.550;23.120;2023-02-11T12:08:02;12.98;;;9.25;;
39680;SDS011;26327;42.550;23.120;2023-02-11T12:10:42;10.60;;;7.15;;
39680;SDS011;26327;42.550;23.120;2023-02-11T12:16:18;7.45;;;3.90;;
39680;SDS011;26327;42.550;23.120;2023-02-11T12:27:42;12.40;;;6.03;;
39680;SDS011;26327;42.550;23.120;2023-02-11T12:30:21;9.27;;;5.63;;
39680;SDS011;26327;42.550;23.120;2023-02-11T12:32:54;12.95;;;5.00;;
39680;SDS011;26327;42.550;23.120;2023-02-11T12:38:26;11.00;;;5.40;;
39680;SDS011;26327;42.550;23.120;2023-02-11T12:44:06;8.98;;;4.20;;
39680;SDS011;26327;42.550;23.120;2023-02-11T12:46:55;8.25;;;4.80;;
39680;SDS011;26327;42.550;23.120;2023-02-11T12:49:41;11.90;;;5.82;;
39680;SDS011;26327;42.550;23.120;2023-02-11T12:54:46;12.07;;;5.78;;
39680;SDS011;26327;42.550;23.120;2023-02-11T12:57:28;10.30;;;5.45;;
39680;SDS011;26327;42.550;23.120;2023-02-11T13:05:37;9.30;;;4.80;;
39680;SDS011;26327;42.550;23.120;2023-02-11T13:19:06;12.13;;;6.30;;
39680;SDS011;26327;42.550;23.120;2023-02-11T13:24:47;13.00;;;6.03;;
39680;SDS011;26327;42.550;23.120;2023-02-11T13:27:42;12.38;;;6.15;;
39680;SDS011;26327;42.550;23.120;2023-02-11T13:30:28;17.52;;;8.18;;
39680;SDS011;26327;42.550;23.120;2023-02-11T13:37:58;11.27;;;6.35;;
39680;SDS011;26327;42.550;23.120;2023-02-11T13:40:33;12.10;;;7.80;;
39680;SDS011;26327;42.550;23.120;2023-02-11T13:43:01;18.23;;;8.70;;
39680;SDS011;26327;42.550;23.120;2023-02-11T13:45:37;15.15;;;6.72;;
39680;SDS011;26327;42.550;23.120;2023-02-11T13:48:19;15.63;;;7.63;;
39680;SDS011;26327;42.550;23.120;2023-02-11T13:50:49;16.08;;;7.78;;
39680;SDS011;26327;42.550;23.120;2023-02-11T13:53:17;23.63;;;11.40;;
39680;SDS011;26327;42.550;23.120;2023-02-11T13:55:45;16.52;;;7.90;;
39680;SDS011;26327;42.550;23.120;2023-02-11T14:11:54;14.52;;;7.28;;
39680;SDS011;26327;42.550;23.120;2023-02-11T14:14:56;12.52;;;6.95;;
39680;SDS011;26327;42.550;23.120;2023-02-11T14:17:42;12.35;;;6.75;;
39680;SDS011;26327;42.550;23.120;2023-02-11T14:23:00;17.20;;;7.85;;
39680;SDS011;26327;42.550;23.120;2023-02-11T14:25:26;20.05;;;9.02;;
39680;SDS011;26327;42.550;23.120;2023-02-11T14:27:56;11.05;;;6.35;;
39680;SDS011;26327;42.550;23.120;2023-02-11T14:36:34;13.93;;;6.80;;
39680;SDS011;26327;42.550;23.120;2023-02-11T14:39:10;26.13;;;12.35;;
39680;SDS011;26327;42.550;23.120;2023-02-11T14:41:45;16.10;;;9.38;;
39680;SDS011;26327;42.550;23.120;2023-02-11T14:44:14;12.93;;;7.03;;
39680;SDS011;26327;42.550;23.120;2023-02-11T14:46:51;19.10;;;7.75;;
39680;SDS011;26327;42.550;23.120;2023-02-11T14:49:26;15.43;;;7.30;;
39680;SDS011;26327;42.550;23.120;2023-02-11T14:55:11;27.35;;;13.25;;
39680;SDS011;26327;42.550;23.120;2023-02-11T14:58:07;18.75;;;8.43;;
39680;SDS011;26327;42.550;23.120;2023-02-11T15:04:05;14.40;;;6.18;;
39680;SDS011;26327;42.550;23.120;2023-02-11T15:06:46;16.45;;;5.40;;
39680;SDS011;26327;42.550;23.120;2023-02-11T15:09:15;14.00;;;6.68;;
39680;SDS011;26327;42.550;23.120;2023-02-11T15:11:49;23.38;;;10.55;;
39680;SDS011;26327;42.550;23.120;2023-02-11T15:14:21;15.63;;;8.20;;
39680;SDS011;26327;42.550;23.120;2023-02-11T15:16:53;17.13;;;6.63;;
39680;SDS011;26327;42.550;23.120;2023-02-11T15:19:25;23.48;;;9.38;;
39680;SDS011;26327;42.550;23.120;2023-02-11T15:21:55;14.52;;;6.93;;
39680;SDS011;26327;42.550;23.120;2023-02-11T15:24:29;12.02;;;6.22;;
39680;SDS011;26327;42.550;23.120;2023-02-11T15:29:40;21.65;;;10.63;;
39680;SDS011;26327;42.550;23.120;2023-02-11T15:34:33;27.55;;;12.52;;
39680;SDS011;26327;42.550;23.120;2023-02-11T15:36:59;15.02;;;7.70;;
39680;SDS011;26327;42.550;23.120;2023-02-11T15:39:35;15.43;;;7.18;;
39680;SDS011;26327;42.550;23.120;2023-02-11T15:47:50;123.00;;;41.45;;
39680;SDS011;26327;42.550;23.120;2023-02-11T15:50:21;57.53;;;20.98;;
39680;SDS011;26327;42.550;23.120;2023-02-11T15:52:49;14.80;;;7.47;;
39680;SDS011;26327;42.550;23.120;2023-02-11T15:55:15;25.05;;;10.18;;
39680;SDS011;26327;42.550;23.120;2023-02-11T15:57:44;207.43;;;60.63;;
39680;SDS011;26327;42.550;23.120;2023-02-11T16:00:18;410.95;;;131.55;;
39680;SDS011;26327;42.550;23.120;2023-02-11T16:02:45;1071.10;;;418.13;;
39680;SDS011;26327;42.550;23.120;2023-02-11T16:08:00;1340.53;;;509.48;;
39680;SDS011;26327;42.550;23.120;2023-02-11T16:10:52;538.72;;;180.88;;
39680;SDS011;26327;42.550;23.120;2023-02-11T16:13:22;310.92;;;98.22;;
39680;SDS011;26327;42.550;23.120;2023-02-11T16:15:49;140.35;;;52.55;;
39680;SDS011;26327;42.550;23.120;2023-02-11T16:18:24;186.27;;;62.90;;
39680;SDS011;26327;42.550;23.120;2023-02-11T16:20:53;136.32;;;47.53;;
39680;SDS011;26327;42.550;23.120;2023-02-11T16:23:21;116.15;;;43.55;;
39680;SDS011;26327;42.550;23.120;2023-02-11T16:26:36;84.65;;;33.47;;
39680;SDS011;26327;42.550;23.120;2023-02-11T16:29:01;58.90;;;26.42;;
39680;SDS011;26327;42.550;23.120;2023-02-11T16:31:35;60.17;;;25.38;;
39680;SDS011;26327;42.550;23.120;2023-02-11T16:34:06;50.92;;;23.00;;
39680;SDS011;26327;42.550;23.120;2023-02-11T16:36:37;61.20;;;26.70;;
39680;SDS011;26327;42.550;23.120;2023-02-11T16:39:02;60.75;;;28.63;;
39680;SDS011;26327;42.550;23.120;2023-02-11T16:41:28;66.18;;;29.23;;
39680;SDS011;26327;42.550;23.120;2023-02-11T16:43:55;66.65;;;29.17;;
39680;SDS011;26327;42.550;23.120;2023-02-11T16:46:21;64.68;;;27.48;;
39680;SDS011;26327;42.550;23.120;2023-02-11T16:48:47;59.33;;;28.02;;
39680;SDS011;26327;42.550;23.120;2023-02-11T16:51:12;61.55;;;27.23;;
39680;SDS011;26327;42.550;23.120;2023-02-11T16:53:38;57.53;;;27.05;;
39680;SDS011;26327;42.550;23.120;2023-02-11T16:56:03;73.55;;;31.27;;
39680;SDS011;26327;42.550;23.120;2023-02-11T16:58:29;88.97;;;30.23;;
39680;SDS011;26327;42.550;23.120;2023-02-11T17:00:54;68.07;;;28.83;;
39680;SDS011;26327;42.550;23.120;2023-02-11T17:03:22;62.20;;;22.38;;
39680;SDS011;26327;42.550;23.120;2023-02-11T17:05:50;41.95;;;19.17;;
39680;SDS011;26327;42.550;23.120;2023-02-11T17:08:15;36.55;;;19.15;;
39680;SDS011;26327;42.550;23.120;2023-02-11T17:10:41;46.08;;;21.80;;
39680;SDS011;26327;42.550;23.120;2023-02-11T17:13:06;51.08;;;23.05;;
39680;SDS011;26327;42.550;23.120;2023-02-11T17:15:32;48.85;;;22.95;;
39680;SDS011;26327;42.550;23.120;2023-02-11T17:17:58;45.33;;;19.88;;
39680;SDS011;26327;42.550;23.120;2023-02-11T17:20:23;286.95;;;93.20;;
39680;SDS011;26327;42.550;23.120;2023-02-11T17:22:49;229.68;;;76.88;;
39680;SDS011;26327;42.550;23.120;2023-02-11T17:25:14;55.42;;;28.95;;
39680;SDS011;26327;42.550;23.120;2023-02-11T17:27:40;71.05;;;27.27;;
39680;SDS011;26327;42.550;23.120;2023-02-11T17:30:06;84.53;;;35.03;;
39680;SDS011;26327;42.550;23.120;2023-02-11T17:32:32;116.30;;;41.20;;
39680;SDS011;26327;42.550;23.120;2023-02-11T17:34:57;86.72;;;34.55;;
39680;SDS011;26327;42.550;23.120;2023-02-11T17:37:23;67.32;;;29.42;;
39680;SDS011;26327;42.550;23.120;2023-02-11T17:39:48;155.32;;;53.78;;
39680;SDS011;26327;42.550;23.120;2023-02-11T17:42:14;94.00;;;36.50;;
39680;SDS011;26327;42.550;23.120;2023-02-11T17:44:40;118.63;;;41.95;;
39680;SDS011;26327;42.550;23.120;2023-02-11T17:47:08;62.58;;;26.23;;
39680;SDS011;26327;42.550;23.120;2023-02-11T17:49:33;67.75;;;28.17;;
39680;SDS011;26327;42.550;23.120;2023-02-11T17:51:59;60.10;;;24.38;;
39680;SDS011;26327;42.550;23.120;2023-02-11T17:54:24;60.30;;;25.05;;
39680;SDS011;26327;42.550;23.120;2023-02-11T17:56:49;81.13;;;31.05;;
39680;SDS011;26327;42.550;23.120;2023-02-11T17:59:17;167.25;;;62.97;;
39680;SDS011;26327;42.550;23.120;2023-02-11T18:01:43;157.02;;;56.83;;
39680;SDS011;26327;42.550;23.120;2023-02-11T18:04:09;160.07;;;57.80;;
39680;SDS011;26327;42.550;23.120;2023-02-11T18:09:03;117.32;;;40.70;;
39680;SDS011;26327;42.550;23.120;2023-02-11T18:11:29;164.35;;;56.65;;
39680;SDS011;26327;42.550;23.120;2023-02-11T18:14:00;148.35;;;48.92;;
39680;SDS011;26327;42.550;23.120;2023-02-11T18:16:26;99.93;;;38.80;;
39680;SDS011;26327;42.550;23.120;2023-02-11T18:18:54;106.78;;;41.13;;
39680;SDS011;26327;42.550;23.120;2023-02-11T18:21:20;217.02;;;86.22;;
39680;SDS011;26327;42.550;23.120;2023-02-11T18:23:47;136.75;;;56.42;;
39680;SDS011;26327;42.550;23.120;2023-02-11T18:26:13;110.25;;;47.42;;
39680;SDS011;26327;42.550;23.120;2023-02-11T18:28:40;122.80;;;41.92;;
39680;SDS011;26327;42.550;23.120;2023-02-11T18:31:06;138.25;;;43.38;;
39680;SDS011;26327;42.550;23.120;2023-02-11T18:33:32;98.88;;;30.60;;
39680;SDS011;26327;42.550;23.120;2023-02-11T18:35:58;63.15;;;22.98;;
39680;SDS011;26327;42.550;23.120;2023-02-11T18:38:24;62.45;;;25.52;;
39680;SDS011;26327;42.550;23.120;2023-02-11T18:40:49;92.68;;;32.40;;
39680;SDS011;26327;42.550;23.120;2023-02-11T18:43:16;106.38;;;39.63;;
39680;SDS011;26327;42.550;23.120;2023-02-11T18:45:46;149.70;;;48.40;;
39680;SDS011;26327;42.550;23.120;2023-02-11T18:48:12;121.97;;;48.22;;
39680;SDS011;26327;42.550;23.120;2023-02-11T18:50:39;101.28;;;39.47;;
39680;SDS011;26327;42.550;23.120;2023-02-11T18:53:05;101.47;;;40.60;;
39680;SDS011;26327;42.550;23.120;2023-02-11T18:55:31;112.38;;;41.95;;
39680;SDS011;26327;42.550;23.120;2023-02-11T18:57:56;99.40;;;38.17;;
39680;SDS011;26327;42.550;23.120;2023-02-11T19:00:22;101.18;;;37.15;;
39680;SDS011;26327;42.550;23.120;2023-02-11T19:02:47;96.20;;;37.05;;
39680;SDS011;26327;42.550;23.120;2023-02-11T19:05:13;91.95;;;31.85;;
39680;SDS011;26327;42.550;23.120;2023-02-11T19:07:39;143.57;;;46.38;;
39680;SDS011;26327;42.550;23.120;2023-02-11T19:10:05;141.50;;;48.42;;
39680;SDS011;26327;42.550;23.120;2023-02-11T19:12:31;126.25;;;45.50;;
39680;SDS011;26327;42.550;23.120;2023-02-11T19:14:57;74.05;;;31.75;;
39680;SDS011;26327;42.550;23.120;2023-02-11T19:17:24;78.38;;;31.17;;
39680;SDS011;26327;42.550;23.120;2023-02-11T19:19:50;92.05;;;35.47;;
39680;SDS011;26327;42.550;23.120;2023-02-11T19:22:16;102.60;;;39.03;;
39680;SDS011;26327;42.550;23.120;2023-02-11T19:24:42;103.30;;;38.53;;
39680;SDS011;26327;42.550;23.120;2023-02-11T19:27:08;82.38;;;32.55;;
39680;SDS011;26327;42.550;23.120;2023-02-11T19:29:34;102.05;;;33.80;;
39680;SDS011;26327;42.550;23.120;2023-02-11T19:32:00;71.63;;;27.15;;
39680;SDS011;26327;42.550;23.120;2023-02-11T19:34:26;79.97;;;29.13;;
39680;SDS011;26327;42.550;23.120;2023-02-11T19:36:52;103.00;;;36.13;;
39680;SDS011;26327;42.550;23.120;2023-02-11T19:39:18;104.60;;;39.00;;
39680;SDS011;26327;42.550;23.120;2023-02-11T19:41:44;88.78;;;32.90;;
39680;SDS011;26327;42.550;23.120;2023-02-11T19:44:09;68.53;;;26.73;;
39680;SDS011;26327;42.550;23.120;2023-02-11T19:46:37;70.15;;;26.20;;
39680;SDS011;26327;42.550;23.120;2023-02-11T19:49:04;103.40;;;34.65;;
39680;SDS011;26327;42.550;23.120;2023-02-11T19:51:31;74.78;;;27.35;;
39680;SDS011;26327;42.550;23.120;2023-02-11T19:53:59;61.70;;;24.08;;
39680;SDS011;26327;42.550;23.120;2023-02-11T19:56:25;90.18;;;29.70;;
39680;SDS011;26327;42.550;23.120;2023-02-11T19:58:52;92.72;;;35.75;;
39680;SDS011;26327;42.550;23.120;2023-02-11T20:01:19;73.45;;;29.38;;
39680;SDS011;26327;42.550;23.120;2023-02-11T20:03:49;55.78;;;23.52;;
39680;SDS011;26327;42.550;23.120;2023-02-11T20:06:18;64.00;;;23.60;;
39680;SDS011;26327;42.550;23.120;2023-02-11T20:08:47;83.05;;;33.85;;
39680;SDS011;26327;42.550;23.120;2023-02-11T20:11:13;89.72;;;34.38;;
39680;SDS011;26327;42.550;23.120;2023-02-11T20:13:41;76.63;;;31.70;;
39680;SDS011;26327;42.550;23.120;2023-02-11T20:16:08;51.00;;;18.80;;
39680;SDS011;26327;42.550;23.120;2023-02-11T20:18:40;57.50;;;22.58;;
39680;SDS011;26327;42.550;23.120;2023-02-11T20:21:06;104.90;;;45.08;;
39680;SDS011;26327;42.550;23.120;2023-02-11T20:23:37;53.33;;;23.17;;
39680;SDS011;26327;42.550;23.120;2023-02-11T20:26:08;51.35;;;20.83;;
39680;SDS011;26327;42.550;23.120;2023-02-11T20:28:35;37.60;;;16.52;;
39680;SDS011;26327;42.550;23.120;2023-02-11T20:31:01;49.97;;;22.25;;
39680;SDS011;26327;42.550;23.120;2023-02-11T20:33:26;54.88;;;23.15;;
39680;SDS011;26327;42.550;23.120;2023-02-11T20:36:01;45.35;;;20.50;;
39680;SDS011;26327;42.550;23.120;2023-02-11T20:38:29;42.65;;;18.48;;
39680;SDS011;26327;42.550;23.120;2023-02-11T20:41:00;46.95;;;19.00;;
39680;SDS011;26327;42.550;23.120;2023-02-11T20:43:30;48.33;;;20.63;;
39680;SDS011;26327;42.550;23.120;2023-02-11T20:46:00;44.20;;;19.92;;
39680;SDS011;26327;42.550;23.120;2023-02-11T20:48:27;30.92;;;13.15;;
39680;SDS011;26327;42.550;23.120;2023-02-11T20:50:53;34.45;;;15.77;;
39680;SDS011;26327;42.550;23.120;2023-02-11T20:53:19;60.97;;;21.38;;
39680;SDS011;26327;42.550;23.120;2023-02-11T20:55:44;56.22;;;23.35;;
39680;SDS011;26327;42.550;23.120;2023-02-11T20:58:09;49.78;;;22.35;;
39680;SDS011;26327;42.550;23.120;2023-02-11T21:00:35;49.97;;;18.27;;
39680;SDS011;26327;42.550;23.120;2023-02-11T21:03:01;43.08;;;18.55;;
39680;SDS011;26327;42.550;23.120;2023-02-11T21:05:27;39.10;;;17.30;;
39680;SDS011;26327;42.550;23.120;2023-02-11T21:07:53;39.80;;;17.67;;
39680;SDS011;26327;42.550;23.120;2023-02-11T21:10:18;43.47;;;17.70;;
39680;SDS011;26327;42.550;23.120;2023-02-11T21:12:44;31.42;;;14.02;;
39680;SDS011;26327;42.550;23.120;2023-02-11T21:15:09;26.92;;;11.70;;
39680;SDS011;26327;42.550;23.120;2023-02-11T21:17:35;34.13;;;14.35;;
39680;SDS011;26327;42.550;23.120;2023-02-11T21:20:01;26.52;;;13.90;;
39680;SDS011;26327;42.550;23.120;2023-02-11T21:22:27;25.15;;;10.63;;
39680;SDS011;26327;42.550;23.120;2023-02-11T21:24:52;21.85;;;10.15;;
39680;SDS011;26327;42.550;23.120;2023-02-11T21:27:18;28.27;;;12.20;;
39680;SDS011;26327;42.550;23.120;2023-02-11T21:29:43;45.20;;;18.33;;
39680;SDS011;26327;42.550;23.120;2023-02-11T21:32:09;29.73;;;14.88;;
39680;SDS011;26327;42.550;23.120;2023-02-11T21:34:34;27.17;;;10.90;;
39680;SDS011;26327;42.550;23.120;2023-02-11T21:37:00;27.83;;;10.40;;
39680;SDS011;26327;42.550;23.120;2023-02-11T21:39:25;23.10;;;10.85;;
39680;SDS011;26327;42.550;23.120;2023-02-11T21:41:50;39.05;;;13.85;;
39680;SDS011;26327;42.550;23.120;2023-02-11T21:44:16;20.35;;;10.35;;
39680;SDS011;26327;42.550;23.120;2023-02-11T21:46:42;27.20;;;11.07;;
39680;SDS011;26327;42.550;23.120;2023-02-11T21:49:08;25.02;;;10.30;;
39680;SDS011;26327;42.550;23.120;2023-02-11T21:51:34;30.52;;;11.88;;
39680;SDS011;26327;42.550;23.120;2023-02-11T21:54:00;30.88;;;11.20;;
39680;SDS011;26327;42.550;23.120;2023-02-11T21:56:26;28.92;;;11.93;;
39680;SDS011;26327;42.550;23.120;2023-02-11T21:58:54;29.38;;;11.65;;
39680;SDS011;26327;42.550;23.120;2023-02-11T22:01:22;24.45;;;9.30;;
39680;SDS011;26327;42.550;23.120;2023-02-11T22:03:49;18.90;;;8.18;;
39680;SDS011;26327;42.550;23.120;2023-02-11T22:06:16;32.40;;;14.18;;
39680;SDS011;26327;42.550;23.120;2023-02-11T22:08:54;23.95;;;11.10;;
39680;SDS011;26327;42.550;23.120;2023-02-11T22:11:20;28.05;;;11.88;;
39680;SDS011;26327;42.550;23.120;2023-02-11T22:13:46;31.33;;;11.15;;
39680;SDS011;26327;42.550;23.120;2023-02-11T22:16:13;23.90;;;9.60;;
39680;SDS011;26327;42.550;23.120;2023-02-11T22:18:40;32.03;;;12.25;;
39680;SDS011;26327;42.550;23.120;2023-02-11T22:21:07;28.90;;;13.20;;
39680;SDS011;26327;42.550;23.120;2023-02-11T22:23:34;30.08;;;12.57;;
39680;SDS011;26327;42.550;23.120;2023-02-11T22:26:04;26.95;;;12.50;;
39680;SDS011;26327;42.550;23.120;2023-02-11T22:28:40;34.33;;;15.60;;
39680;SDS011;26327;42.550;23.120;2023-02-11T22:31:08;42.92;;;18.00;;
39680;SDS011;26327;42.550;23.120;2023-02-11T22:33:40;54.78;;;24.08;;
39680;SDS011;26327;42.550;23.120;2023-02-11T22:36:06;38.90;;;17.75;;
39680;SDS011;26327;42.550;23.120;2023-02-11T22:38:36;32.83;;;16.00;;
39680;SDS011;26327;42.550;23.120;2023-02-11T22:41:05;27.88;;;12.60;;
39680;SDS011;26327;42.550;23.120;2023-02-11T22:43:33;23.77;;;11.52;;
39680;SDS011;26327;42.550;23.120;2023-02-11T22:45:59;26.88;;;11.88;;
39680;SDS011;26327;42.550;23.120;2023-02-11T22:48:25;28.33;;;11.57;;
39680;SDS011;26327;42.550;23.120;2023-02-11T22:50:51;32.17;;;11.85;;
39680;SDS011;26327;42.550;23.120;2023-02-11T22:53:17;24.52;;;10.35;;
39680;SDS011;26327;42.550;23.120;2023-02-11T22:55:42;27.40;;;11.27;;
39680;SDS011;26327;42.550;23.120;2023-02-11T22:58:08;26.33;;;11.65;;
39680;SDS011;26327;42.550;23.120;2023-02-11T23:00:40;27.70;;;12.88;;
39680;SDS011;26327;42.550;23.120;2023-02-11T23:03:05;25.20;;;11.25;;
39680;SDS011;26327;42.550;23.120;2023-02-11T23:05:39;24.08;;;12.25;;
39680;SDS011;26327;42.550;23.120;2023-02-11T23:08:06;24.75;;;11.65;;
39680;SDS011;26327;42.550;23.120;2023-02-11T23:10:33;26.58;;;11.80;;
39680;SDS011;26327;42.550;23.120;2023-02-11T23:12:59;31.23;;;12.13;;
39680;SDS011;26327;42.550;23.120;2023-02-11T23:15:24;42.75;;;19.20;;
39680;SDS011;26327;42.550;23.120;2023-02-11T23:17:50;40.75;;;18.10;;
39680;SDS011;26327;42.550;23.120;2023-02-11T23:20:15;42.33;;;20.02;;
39680;SDS011;26327;42.550;23.120;2023-02-11T23:22:41;40.92;;;18.15;;
39680;SDS011;26327;42.550;23.120;2023-02-11T23:25:06;42.85;;;19.00;;
